createdAt,value
2023-03-22T11:18:16.580Z,0.80
2023-03-22T11:20:54.317Z,0.70
2023-03-22T11:23:21.743Z,0.75
2023-03-22T11:25:50.630Z,0.77
2023-03-22T11:28:26.798Z,0.73
2023-03-22T11:31:15.847Z,0.93
2023-03-22T11:34:01.666Z,0.63
2023-03-22T11:36:29.398Z,0.57
2023-03-22T11:39:00.726Z,0.82
2023-03-22T11:41:39.440Z,0.90
2023-03-22T11:44:10.707Z,0.80
2023-03-22T11:46:37.983Z,0.60
2023-03-22T11:49:08.884Z,0.50
2023-03-22T12:58:58.971Z,0.60
2023-03-22T13:01:35.082Z,0.80
2023-03-22T13:04:27.476Z,0.80
2023-03-22T13:07:15.156Z,0.80
2023-03-22T13:09:42.985Z,0.60
2023-03-22T13:12:18.647Z,0.65
2023-03-22T13:14:56.167Z,0.50
2023-03-22T13:17:22.764Z,0.60
2023-03-22T13:19:58.549Z,0.60
2023-03-22T13:22:50.934Z,0.32
2023-03-22T13:25:18.855Z,0.50
2023-03-22T13:27:45.432Z,0.75
2023-03-22T13:30:21.653Z,0.80
2023-03-22T13:32:54.508Z,0.70
2023-03-22T13:35:27.868Z,0.75
2023-03-22T13:38:01.946Z,0.60
2023-03-22T13:40:37.843Z,0.38
2023-03-22T13:43:16.970Z,0.40
2023-03-22T13:46:10.370Z,0.50
2023-03-22T13:49:17.131Z,0.57
2023-03-22T13:51:44.680Z,0.68
2023-03-22T13:54:14.887Z,0.57
2023-03-22T13:56:56.055Z,0.60
2023-03-22T13:59:29.789Z,0.43
2023-03-22T14:02:11.525Z,0.40
2023-03-22T14:04:55.985Z,0.43
2023-03-22T14:07:47.823Z,0.47
2023-03-22T14:10:20.120Z,0.70
2023-03-22T14:12:52.081Z,0.73
2023-03-22T14:15:26.817Z,0.40
2023-03-22T14:18:14.676Z,0.30
2023-03-22T14:20:42.110Z,0.30
